createdAt,value
2018-11-02T00:01:33.427Z,99.90
2018-11-02T00:04:02.664Z,99.90
2018-11-02T00:06:33.247Z,99.90
2018-11-02T00:09:02.618Z,99.90
2018-11-02T00:11:31.841Z,99.90
2018-11-02T00:14:01.060Z,99.90
2018-11-02T00:16:30.249Z,99.90
2018-11-02T00:18:59.453Z,99.90
2018-11-02T00:21:28.638Z,99.90
2018-11-02T00:23:57.850Z,99.90
2018-11-02T00:26:27.037Z,99.90
2018-11-02T00:28:56.263Z,99.90
2018-11-02T00:31:25.473Z,99.90
2018-11-02T00:33:54.873Z,99.90
2018-11-02T00:36:24.073Z,99.90
2018-11-02T00:38:53.265Z,99.90
2018-11-02T00:41:22.468Z,99.90
2018-11-02T00:43:51.682Z,99.90
2018-11-02T00:46:20.901Z,99.90
2018-11-02T00:48:50.114Z,99.90
2018-11-02T00:51:19.329Z,99.90
2018-11-02T00:53:48.526Z,99.90
2018-11-02T00:56:17.731Z,99.90
2018-11-02T00:58:46.931Z,99.90
2018-11-02T01:01:16.104Z,99.90
2018-11-02T01:03:45.313Z,99.90
2018-11-02T01:06:14.518Z,99.90
2018-11-02T01:08:43.733Z,99.90
2018-11-02T01:11:12.913Z,99.90
2018-11-02T01:13:42.123Z,99.90
2018-11-02T01:16:11.305Z,99.90
2018-11-02T01:18:40.525Z,99.90
2018-11-02T01:21:09.715Z,99.90
2018-11-02T01:23:38.938Z,99.90
2018-11-02T01:26:08.121Z,99.90
2018-11-02T01:28:37.287Z,99.90
2018-11-02T01:31:06.516Z,99.90
2018-11-02T01:33:38.600Z,99.90
2018-11-02T01:36:09.774Z,99.90
2018-11-02T01:38:39.046Z,99.90
2018-11-02T01:41:08.262Z,99.90
2018-11-02T01:43:37.440Z,99.90
2018-11-02T01:46:06.720Z,99.90
2018-11-02T01:48:35.899Z,99.90
2018-11-02T01:51:05.164Z,99.90
2018-11-02T01:53:34.364Z,99.90
2018-11-02T01:56:03.619Z,99.90
2018-11-02T01:58:32.856Z,99.90
2018-11-02T02:01:02.093Z,99.90
2018-11-02T02:03:31.293Z,99.90
2018-11-02T02:06:00.516Z,99.90
2018-11-02T02:08:29.769Z,99.90
2018-11-02T02:10:59.821Z,99.90
2018-11-02T02:13:29.010Z,99.90
2018-11-02T02:15:58.337Z,99.90
2018-11-02T02:18:27.533Z,99.90
2018-11-02T02:20:56.764Z,99.90
2018-11-02T02:23:26.344Z,99.90
2018-11-02T02:25:55.600Z,99.90
2018-11-02T02:28:24.800Z,99.90
2018-11-02T02:30:54.054Z,99.90
2018-11-02T02:33:23.260Z,99.90
2018-11-02T02:35:52.484Z,99.90
2018-11-02T02:38:21.697Z,99.90
2018-11-02T02:40:50.913Z,99.90
2018-11-02T02:43:20.094Z,99.90
2018-11-02T02:45:49.420Z,99.90
2018-11-02T02:48:18.654Z,99.90
2018-11-02T02:50:47.884Z,99.90
2018-11-02T02:53:17.080Z,99.90
2018-11-02T02:55:46.283Z,99.90
2018-11-02T02:58:15.534Z,99.90
2018-11-02T03:00:44.750Z,99.90
2018-11-02T03:03:13.941Z,99.90
2018-11-02T03:05:43.156Z,99.90
2018-11-02T03:08:12.361Z,99.90
2018-11-02T03:10:41.599Z,99.90
2018-11-02T03:13:10.801Z,99.90
2018-11-02T03:15:40.041Z,99.90
2018-11-02T03:18:09.380Z,99.90
2018-11-02T03:20:38.579Z,99.90
2018-11-02T03:23:07.777Z,99.90
2018-11-02T03:25:37.021Z,99.90
2018-11-02T03:28:06.373Z,99.90
2018-11-02T03:30:35.596Z,99.90
2018-11-02T03:33:04.817Z,99.90
2018-11-02T03:35:34.018Z,99.90
2018-11-02T03:38:03.205Z,99.90
2018-11-02T03:40:32.424Z,99.90
2018-11-02T03:43:01.637Z,99.90
2018-11-02T03:45:30.855Z,99.90
2018-11-02T03:48:00.024Z,99.90
2018-11-02T03:50:29.218Z,99.90
2018-11-02T03:52:58.416Z,99.90
2018-11-02T03:55:27.624Z,99.90
2018-11-02T03:57:56.816Z,99.90
2018-11-02T04:00:26.026Z,99.90
2018-11-02T04:02:55.229Z,99.90
2018-11-02T04:05:24.417Z,99.90
2018-11-02T04:07:53.612Z,99.90
2018-11-02T04:10:22.821Z,99.90
2018-11-02T04:12:52.036Z,99.90
2018-11-02T04:15:21.260Z,99.90
2018-11-02T04:17:50.464Z,99.90
2018-11-02T04:20:19.672Z,99.90
2018-11-02T04:22:48.861Z,99.90
2018-11-02T04:25:18.080Z,99.90
2018-11-02T04:27:47.271Z,99.90
2018-11-02T04:30:16.540Z,99.90
2018-11-02T04:32:45.721Z,99.90
2018-11-02T04:35:14.938Z,99.90
2018-11-02T04:37:44.148Z,99.90
2018-11-02T04:40:13.368Z,99.90
2018-11-02T04:42:42.574Z,99.90
2018-11-02T04:45:11.853Z,99.90
2018-11-02T04:47:41.055Z,99.90
2018-11-02T04:50:10.267Z,99.90
2018-11-02T04:52:39.475Z,99.90
2018-11-02T04:55:08.661Z,99.90
2018-11-02T04:57:37.865Z,99.90
2018-11-02T05:00:09.194Z,99.90
2018-11-02T05:02:38.403Z,99.90
2018-11-02T05:05:07.625Z,99.90
2018-11-02T05:07:36.848Z,99.90
2018-11-02T05:10:07.474Z,99.90
2018-11-02T05:12:36.720Z,99.90
2018-11-02T05:15:06.377Z,99.90
2018-11-02T05:17:35.589Z,99.90
2018-11-02T05:20:05.793Z,99.90
2018-11-02T05:22:34.984Z,99.90
2018-11-02T05:25:04.189Z,99.90
2018-11-02T05:27:33.416Z,99.90
2018-11-02T05:30:02.685Z,99.90
2018-11-02T05:32:31.881Z,99.90
2018-11-02T05:35:01.085Z,99.90
2018-11-02T05:37:30.337Z,99.90
2018-11-02T05:39:59.568Z,99.90
2018-11-02T05:42:28.761Z,99.90
2018-11-02T05:44:57.960Z,99.90
2018-11-02T05:47:27.206Z,99.90
2018-11-02T05:49:56.346Z,99.90
2018-11-02T05:52:25.586Z,99.90
2018-11-02T05:54:54.795Z,99.90
2018-11-02T05:57:23.992Z,99.90
2018-11-02T05:59:53.186Z,99.90
2018-11-02T06:02:22.403Z,99.90
2018-11-02T06:04:51.682Z,99.90
2018-11-02T06:07:20.912Z,99.90
2018-11-02T06:09:50.121Z,99.90
2018-11-02T06:12:19.375Z,99.90
2018-11-02T06:14:48.569Z,99.90
2018-11-02T06:17:17.797Z,99.90
2018-11-02T06:19:47.136Z,99.90
2018-11-02T06:22:16.374Z,99.90
2018-11-02T06:24:45.572Z,99.90
2018-11-02T06:27:14.857Z,99.90
2018-11-02T06:29:44.057Z,99.90
2018-11-02T06:32:13.338Z,99.90
2018-11-02T06:34:42.549Z,99.90
2018-11-02T06:37:11.810Z,99.90
2018-11-02T06:39:40.972Z,99.90
2018-11-02T06:42:10.211Z,99.90
2018-11-02T06:44:39.433Z,99.90
2018-11-02T06:47:08.617Z,99.90
2018-11-02T06:49:37.800Z,99.90
2018-11-02T06:52:07.050Z,99.90
2018-11-02T06:54:36.257Z,99.90
2018-11-02T06:57:06.132Z,99.90
2018-11-02T06:59:35.538Z,99.90
2018-11-02T07:02:04.728Z,99.90
2018-11-02T07:04:33.927Z,99.90
2018-11-02T07:07:03.223Z,99.90
2018-11-02T07:09:32.400Z,99.90
2018-11-02T07:12:01.612Z,99.90
2018-11-02T07:14:30.795Z,99.90
2018-11-02T07:17:00.021Z,99.90
2018-11-02T07:19:29.204Z,99.90
2018-11-02T07:21:58.419Z,99.90
2018-11-02T07:24:27.614Z,99.90
2018-11-02T07:26:56.817Z,99.90
2018-11-02T07:29:26.017Z,99.90
2018-11-02T07:31:55.240Z,99.90
2018-11-02T07:34:24.471Z,99.90
2018-11-02T07:36:53.709Z,99.90
2018-11-02T07:39:22.933Z,99.90
2018-11-02T07:41:52.198Z,99.90
2018-11-02T07:44:21.393Z,99.90
2018-11-02T07:46:50.580Z,99.90
2018-11-02T07:49:19.794Z,99.90
2018-11-02T07:51:49.007Z,99.90
2018-11-02T07:54:18.180Z,99.90
2018-11-02T07:56:47.404Z,99.90
2018-11-02T07:59:16.617Z,99.90
2018-11-02T08:01:46.468Z,99.90
2018-11-02T08:04:15.626Z,99.90
2018-11-02T08:06:44.850Z,99.90
2018-11-02T08:09:14.863Z,99.90
2018-11-02T08:11:44.497Z,99.90
2018-11-02T08:14:14.250Z,99.90
2018-11-02T08:16:43.454Z,99.90
2018-11-02T08:19:12.661Z,99.90
2018-11-02T08:21:41.836Z,99.90
2018-11-02T08:24:11.045Z,99.90
2018-11-02T08:26:40.236Z,99.90
2018-11-02T08:29:09.429Z,99.90
2018-11-02T08:31:38.660Z,99.90
2018-11-02T08:34:07.861Z,99.90
2018-11-02T08:36:37.048Z,99.90
2018-11-02T08:39:09.078Z,99.90
2018-11-02T08:41:38.330Z,99.90
2018-11-02T08:44:07.874Z,99.90
2018-11-02T08:46:37.115Z,99.90
2018-11-02T08:49:06.401Z,99.90
2018-11-02T08:51:35.668Z,99.90
2018-11-02T08:54:04.863Z,99.90
2018-11-02T08:56:34.110Z,99.90
2018-11-02T08:59:03.451Z,99.90
2018-11-02T09:01:32.605Z,99.90
2018-11-02T09:04:01.830Z,99.90
2018-11-02T09:06:31.028Z,99.90
2018-11-02T09:09:00.257Z,99.90
2018-11-02T09:11:29.474Z,99.90
2018-11-02T09:13:58.754Z,99.90
2018-11-02T09:16:27.982Z,99.90
2018-11-02T09:18:57.221Z,99.90
2018-11-02T09:21:26.843Z,99.90
2018-11-02T09:23:55.985Z,99.90
2018-11-02T09:26:25.459Z,99.90
2018-11-02T09:28:54.889Z,99.90
2018-11-02T09:31:24.076Z,99.90
2018-11-02T09:33:53.273Z,99.90
2018-11-02T09:36:22.468Z,99.90
2018-11-02T09:38:51.659Z,99.90
2018-11-02T09:41:20.873Z,99.90
2018-11-02T09:43:50.268Z,99.90
2018-11-02T09:46:19.467Z,99.90
2018-11-02T09:48:48.697Z,99.90
2018-11-02T09:51:17.979Z,99.90
2018-11-02T09:53:47.165Z,99.90
2018-11-02T09:56:16.371Z,99.90
2018-11-02T09:58:45.608Z,99.90
2018-11-02T10:01:14.876Z,99.90
2018-11-02T10:03:44.116Z,99.90
2018-11-02T10:06:13.545Z,99.90
2018-11-02T10:08:42.846Z,99.90
2018-11-02T10:11:12.119Z,99.90
2018-11-02T10:13:41.338Z,99.90
2018-11-02T10:16:10.541Z,99.90
2018-11-02T10:18:39.809Z,99.90
2018-11-02T10:21:09.040Z,99.90
2018-11-02T10:23:38.285Z,99.90
2018-11-02T10:26:07.519Z,99.90
2018-11-02T10:28:36.771Z,99.90
2018-11-02T10:31:06.388Z,99.90
2018-11-02T10:33:35.681Z,99.90
2018-11-02T10:36:06.553Z,99.90
2018-11-02T10:38:35.855Z,99.90
2018-11-02T10:41:06.163Z,99.90
2018-11-02T10:43:35.890Z,99.90
2018-11-02T10:46:05.134Z,99.90
2018-11-02T10:48:34.380Z,99.90
2018-11-02T10:51:06.509Z,99.90
2018-11-02T10:53:35.778Z,99.90
2018-11-02T10:56:05.304Z,99.90
2018-11-02T10:58:34.606Z,99.90
2018-11-02T11:01:09.259Z,99.90
2018-11-02T11:03:38.337Z,99.90
2018-11-02T11:06:07.541Z,99.90
2018-11-02T11:08:36.774Z,99.90
2018-11-02T11:11:06.272Z,99.90
2018-11-02T11:13:35.929Z,99.90
2018-11-02T11:16:04.901Z,99.90
2018-11-02T11:18:34.165Z,99.90
2018-11-02T11:21:03.428Z,99.90
2018-11-02T11:23:32.611Z,99.90
2018-11-02T11:26:01.837Z,99.90
2018-11-02T11:28:31.061Z,99.90
2018-11-02T11:31:00.252Z,99.90
2018-11-02T11:33:29.506Z,99.90
2018-11-02T11:35:58.734Z,99.90
2018-11-02T11:38:27.989Z,99.90
2018-11-02T11:40:57.237Z,99.90
2018-11-02T11:43:26.469Z,99.90
2018-11-02T11:45:55.749Z,99.90
2018-11-02T11:48:25.030Z,99.90
2018-11-02T11:50:54.206Z,99.90
2018-11-02T11:53:23.421Z,99.90
2018-11-02T11:55:52.652Z,99.90
2018-11-02T11:58:21.849Z,99.90
2018-11-02T12:00:51.081Z,99.90
2018-11-02T12:03:20.285Z,99.90
2018-11-02T12:05:49.507Z,99.60
2018-11-02T12:08:18.713Z,99.90
2018-11-02T12:10:47.975Z,99.90
2018-11-02T12:13:17.173Z,99.30
2018-11-02T12:15:46.494Z,98.50
2018-11-02T12:18:21.925Z,98.20
2018-11-02T12:20:51.184Z,98.10
2018-11-02T12:23:20.492Z,97.90
2018-11-02T12:25:49.681Z,96.60
2018-11-02T12:28:19.024Z,96.30
2018-11-02T12:30:48.212Z,95.50
2018-11-02T12:33:17.447Z,93.90
2018-11-02T12:35:46.677Z,95.50
2018-11-02T12:38:16.015Z,95.70
2018-11-02T12:40:45.244Z,95.60
2018-11-02T12:43:14.515Z,94.30
2018-11-02T12:45:43.736Z,94.80
2018-11-02T12:48:12.956Z,94.50
2018-11-02T12:50:42.193Z,95.10
2018-11-02T12:53:11.424Z,95.80
2018-11-02T12:55:41.284Z,95.60
2018-11-02T12:58:10.486Z,96.50
2018-11-02T13:00:39.733Z,96.20
2018-11-02T13:03:08.945Z,97.10
2018-11-02T13:05:38.168Z,97.40
2018-11-02T13:08:07.485Z,96.80
2018-11-02T13:10:36.743Z,97.30
2018-11-02T13:13:06.187Z,97.90
2018-11-02T13:15:35.422Z,98.20
2018-11-02T13:18:04.687Z,98.30
2018-11-02T13:20:33.877Z,97.30
2018-11-02T13:23:03.076Z,97.80
2018-11-02T13:25:32.460Z,98.00
2018-11-02T13:28:01.554Z,98.10
2018-11-02T13:30:30.959Z,97.70
2018-11-02T13:32:59.977Z,97.60
2018-11-02T13:35:29.182Z,97.70
2018-11-02T13:37:58.369Z,97.80
2018-11-02T13:40:27.604Z,97.90
2018-11-02T13:42:56.864Z,97.80
2018-11-02T13:45:26.070Z,98.00
2018-11-02T13:47:55.291Z,98.10
2018-11-02T13:50:24.614Z,98.40
2018-11-02T13:52:53.789Z,98.30
2018-11-02T13:55:23.018Z,98.20
2018-11-02T13:57:52.272Z,98.20
2018-11-02T14:00:21.529Z,98.40
2018-11-02T14:02:50.733Z,98.70
2018-11-02T14:05:19.949Z,98.40
2018-11-02T14:07:49.150Z,98.30
2018-11-02T14:10:18.400Z,98.50
2018-11-02T14:12:47.630Z,98.70
2018-11-02T14:15:17.389Z,98.90
2018-11-02T14:17:46.736Z,99.00
2018-11-02T14:20:16.372Z,98.90
2018-11-02T14:22:45.598Z,99.10
2018-11-02T14:25:16.200Z,99.10
2018-11-02T14:27:45.684Z,99.20
2018-11-02T14:30:16.225Z,99.00
2018-11-02T14:32:46.071Z,99.20
2018-11-02T14:35:15.308Z,99.40
2018-11-02T14:37:44.593Z,99.40
2018-11-02T14:40:13.858Z,99.50
2018-11-02T14:42:43.326Z,99.40
2018-11-02T14:45:14.784Z,99.60
2018-11-02T14:47:44.847Z,99.70
2018-11-02T14:50:14.098Z,99.40
2018-11-02T14:52:43.352Z,99.60
2018-11-02T14:55:12.574Z,99.80
2018-11-02T14:57:41.799Z,99.90
2018-11-02T15:00:12.025Z,99.90
2018-11-02T15:02:41.882Z,99.80
2018-11-02T15:05:12.784Z,99.90
2018-11-02T15:07:42.772Z,99.90
2018-11-02T15:10:12.009Z,99.90
2018-11-02T15:12:41.228Z,99.90
2018-11-02T15:15:10.905Z,99.90
2018-11-02T15:17:40.396Z,99.90
2018-11-02T15:20:12.404Z,99.90
2018-11-02T15:22:41.642Z,99.90
2018-11-02T15:25:11.175Z,99.90
2018-11-02T15:27:40.417Z,99.90
2018-11-02T15:30:11.963Z,99.90
2018-11-02T15:32:41.694Z,99.90
2018-11-02T15:35:11.757Z,99.90
2018-11-02T15:37:41.226Z,99.90
2018-11-02T15:40:11.593Z,99.90
2018-11-02T15:42:41.156Z,99.90
2018-11-02T15:45:12.995Z,99.90
2018-11-02T15:47:42.852Z,99.90
2018-11-02T15:50:12.202Z,99.90
2018-11-02T15:52:41.753Z,99.90
2018-11-02T15:55:12.219Z,99.90
2018-11-02T15:57:41.501Z,99.90
2018-11-02T16:00:17.434Z,99.90
2018-11-02T16:02:47.949Z,99.90
2018-11-02T16:05:17.439Z,99.90
2018-11-02T16:07:46.677Z,99.90
2018-11-02T16:10:16.031Z,99.90
2018-11-02T16:12:45.582Z,99.90
2018-11-02T16:15:14.848Z,99.90
2018-11-02T16:17:44.196Z,99.90
2018-11-02T16:20:14.567Z,99.90
2018-11-02T16:22:44.500Z,99.90
2018-11-02T16:25:14.131Z,99.90
2018-11-02T16:27:43.452Z,99.90
2018-11-02T16:30:13.301Z,99.90
2018-11-02T16:32:42.461Z,99.90
2018-11-02T16:35:12.305Z,99.90
2018-11-02T16:37:41.641Z,99.90
2018-11-02T16:40:14.153Z,99.90
2018-11-02T16:42:44.149Z,99.90
2018-11-02T16:45:14.231Z,99.90
2018-11-02T16:47:44.165Z,99.90
2018-11-02T16:50:14.469Z,99.90
2018-11-02T16:52:44.117Z,99.90
2018-11-02T16:55:13.340Z,99.90
2018-11-02T16:57:42.680Z,99.90
2018-11-02T17:00:17.077Z,99.90
2018-11-02T17:02:47.538Z,99.90
2018-11-02T17:05:17.117Z,99.90
2018-11-02T17:07:46.428Z,99.90
2018-11-02T17:10:16.161Z,99.90
2018-11-02T17:12:46.160Z,99.90
2018-11-02T17:15:15.506Z,99.90
2018-11-02T17:17:44.742Z,99.90
2018-11-02T17:20:15.272Z,99.90
2018-11-02T17:22:44.496Z,99.90
2018-11-02T17:25:14.089Z,99.90
2018-11-02T17:27:43.405Z,99.90
2018-11-02T17:30:15.463Z,99.90
2018-11-02T17:32:44.685Z,99.90
2018-11-02T17:35:13.894Z,99.90
2018-11-02T17:37:43.130Z,99.90
2018-11-02T17:40:14.297Z,99.90
2018-11-02T17:42:44.112Z,99.90
2018-11-02T17:45:13.325Z,99.90
2018-11-02T17:47:43.120Z,99.90
2018-11-02T17:50:13.827Z,99.90
2018-11-02T17:52:43.340Z,99.90
2018-11-02T17:55:12.543Z,99.90
2018-11-02T17:57:41.773Z,99.90
2018-11-02T18:00:12.875Z,99.90
2018-11-02T18:02:42.114Z,99.90
2018-11-02T18:05:11.785Z,99.90
2018-11-02T18:07:41.014Z,99.90
2018-11-02T18:10:12.273Z,99.90
2018-11-02T18:12:41.521Z,99.90
2018-11-02T18:15:11.640Z,99.90
2018-11-02T18:17:40.847Z,99.90
2018-11-02T18:20:12.969Z,99.90
2018-11-02T18:22:42.332Z,99.90
2018-11-02T18:25:11.709Z,99.90
2018-11-02T18:27:41.528Z,99.90
2018-11-02T18:30:11.749Z,99.90
2018-11-02T18:32:43.271Z,99.90
2018-11-02T18:35:12.571Z,99.90
2018-11-02T18:37:41.767Z,99.90
2018-11-02T18:40:12.635Z,99.90
2018-11-02T18:42:42.244Z,99.90
2018-11-02T18:45:13.037Z,99.90
2018-11-02T18:47:45.967Z,99.90
2018-11-02T18:50:17.495Z,99.90
2018-11-02T18:52:47.328Z,99.90
2018-11-02T18:55:17.018Z,99.90
2018-11-02T18:57:46.534Z,99.90
2018-11-02T19:00:15.748Z,99.90
2018-11-02T19:02:44.960Z,99.90
2018-11-02T19:05:15.424Z,99.90
2018-11-02T19:07:44.739Z,99.90
2018-11-02T19:10:14.040Z,99.90
2018-11-02T19:12:43.881Z,99.90
2018-11-02T19:15:15.208Z,99.90
2018-11-02T19:17:44.456Z,99.90
2018-11-02T19:20:14.055Z,99.90
2018-11-02T19:22:43.321Z,99.90
2018-11-02T19:25:13.730Z,99.90
2018-11-02T19:27:43.613Z,99.90
2018-11-02T19:30:13.692Z,99.90
2018-11-02T19:32:43.027Z,99.90
2018-11-02T19:35:13.475Z,99.90
2018-11-02T19:37:42.958Z,99.90
2018-11-02T19:40:13.832Z,99.90
2018-11-02T19:42:43.352Z,99.90
2018-11-02T19:45:13.049Z,99.90
2018-11-02T19:47:47.456Z,99.90
2018-11-02T19:50:17.897Z,99.90
2018-11-02T19:52:47.283Z,99.90
2018-11-02T19:55:16.569Z,99.90
2018-11-02T19:57:45.858Z,99.90
2018-11-02T20:00:16.323Z,99.90
2018-11-02T20:02:45.778Z,99.90
2018-11-02T20:05:16.932Z,99.90
2018-11-02T20:07:46.129Z,99.90
2018-11-02T20:10:16.201Z,99.90
2018-11-02T20:12:46.009Z,99.90
2018-11-02T20:15:15.813Z,99.90
2018-11-02T20:17:45.043Z,99.90
2018-11-02T20:20:15.425Z,99.90
2018-11-02T20:22:44.688Z,99.90
2018-11-02T20:25:15.365Z,99.90
2018-11-02T20:27:44.707Z,99.90
2018-11-02T20:30:15.808Z,99.90
2018-11-02T20:32:45.216Z,99.90
2018-11-02T20:35:14.719Z,99.90
2018-11-02T20:37:43.925Z,99.90
2018-11-02T20:40:15.998Z,99.90
2018-11-02T20:42:45.791Z,99.90
2018-11-02T20:45:15.586Z,99.90
2018-11-02T20:47:48.897Z,99.90
2018-11-02T20:50:18.382Z,99.90
2018-11-02T20:52:47.733Z,99.90
2018-11-02T20:55:17.400Z,99.90
2018-11-02T20:57:46.641Z,99.90
2018-11-02T21:00:17.117Z,99.90
2018-11-02T21:02:47.632Z,99.90
2018-11-02T21:05:17.988Z,99.90
2018-11-02T21:07:47.696Z,99.90
2018-11-02T21:10:18.193Z,99.90
2018-11-02T21:12:47.720Z,99.90
2018-11-02T21:15:19.288Z,99.90
2018-11-02T21:17:48.908Z,99.90
2018-11-02T21:20:19.464Z,99.90
2018-11-02T21:22:48.686Z,99.90
2018-11-02T21:25:17.973Z,99.90
2018-11-02T21:27:47.711Z,99.90
2018-11-02T21:30:18.622Z,99.90
2018-11-02T21:32:48.439Z,99.90
2018-11-02T21:35:18.214Z,99.90
2018-11-02T21:37:49.193Z,99.90
2018-11-02T21:40:20.789Z,99.90
2018-11-02T21:42:50.037Z,99.90
2018-11-02T21:45:20.625Z,99.90
2018-11-02T21:47:49.817Z,99.90
2018-11-02T21:50:19.204Z,99.90
2018-11-02T21:52:48.443Z,99.90
2018-11-02T21:55:17.692Z,99.90
2018-11-02T21:57:46.892Z,99.90
2018-11-02T22:00:19.601Z,99.90
2018-11-02T22:02:48.939Z,99.90
2018-11-02T22:05:18.173Z,99.90
2018-11-02T22:07:48.580Z,99.90
2018-11-02T22:10:18.244Z,99.90
2018-11-02T22:12:47.466Z,99.90
2018-11-02T22:15:16.711Z,99.90
2018-11-02T22:17:46.293Z,99.90
2018-11-02T22:20:16.077Z,99.90
2018-11-02T22:22:45.344Z,99.90
2018-11-02T22:25:16.577Z,99.90
2018-11-02T22:27:45.820Z,99.90
2018-11-02T22:30:16.396Z,99.90
2018-11-02T22:32:45.590Z,99.90
2018-11-02T22:35:17.014Z,99.90
2018-11-02T22:37:46.536Z,99.90
2018-11-02T22:40:16.632Z,99.90
2018-11-02T22:42:45.853Z,99.90
2018-11-02T22:45:15.884Z,99.90
2018-11-02T22:48:51.060Z,99.90
2018-11-02T22:51:20.313Z,99.90
2018-11-02T22:53:49.551Z,99.90
2018-11-02T22:56:18.751Z,99.90
2018-11-02T22:58:47.972Z,99.90
2018-11-02T23:01:28.443Z,99.90
2018-11-02T23:03:59.409Z,99.90
2018-11-02T23:06:29.144Z,99.90
2018-11-02T23:08:58.352Z,99.90
2018-11-02T23:11:27.618Z,99.90
2018-11-02T23:13:56.833Z,99.90
2018-11-02T23:16:26.015Z,99.90
2018-11-02T23:18:55.249Z,99.90
2018-11-02T23:21:24.453Z,99.90
2018-11-02T23:23:53.697Z,99.90
2018-11-02T23:26:22.921Z,99.90
2018-11-02T23:28:52.101Z,99.90
2018-11-02T23:31:21.337Z,99.90
2018-11-02T23:33:50.521Z,99.90
2018-11-02T23:36:19.738Z,99.90
2018-11-02T23:38:49.024Z,99.90
2018-11-02T23:41:18.241Z,99.90
2018-11-02T23:43:47.426Z,99.90
2018-11-02T23:46:16.661Z,99.90
2018-11-02T23:48:45.860Z,99.90
2018-11-02T23:51:15.083Z,99.90
2018-11-02T23:53:44.272Z,99.90
2018-11-02T23:56:13.496Z,99.90
2018-11-02T23:58:42.685Z,99.90
